Puunene, Hawaii
Current Conditions -  °F | °C
As of 5:54 AM on Thursday 27 Nov 2014 (Local Time) from PHOG Reporting Station
Scattered Clouds Scattered Clouds  
Wind Chill: 72°   Ceiling: Unl
Heat Index: 72°   Visibility: 10mi
Dew Point: 63°   Wind: 15mph
Humidity: 73%   Direction: 50°NE
Pressure: 30.05"   Gusts: 20mph
Location:  20.86°N, 156.45°W
Report Text: PHOG 271554Z 05013G17KT 10SM FEW033 SCT050 22/17 A3005 RMK AO2 SLP181 T02220172 $
Loading
Personal Weather Stations






























Interactive Weather Map New forecast layout! Learn more

10-Day Weather Forecast

Advertisements
Track Severe Weather on mobile